sensor_id;sensor_type;location;lat;lon;timestamp;pressure;altitude;pressure_sealevel;temperature;humidity
76229;BME280;65021;53.174;18.160;2023-11-18T00:00:32;101507.66;;;0.73;100.00
76229;BME280;65021;53.174;18.160;2023-11-18T00:03:19;101510.10;;;0.73;100.00
76229;BME280;65021;53.174;18.160;2023-11-18T00:05:46;101514.86;;;0.72;100.00
76229;BME280;65021;53.174;18.160;2023-11-18T00:08:12;101518.83;;;0.71;100.00
76229;BME280;65021;53.174;18.160;2023-11-18T00:10:39;101523.04;;;0.71;100.00
76229;BME280;65021;53.174;18.160;2023-11-18T00:13:06;101523.13;;;0.70;100.00
76229;BME280;65021;53.174;18.160;2023-11-18T00:15:33;101523.46;;;0.71;100.00
76229;BME280;65021;53.174;18.160;2023-11-18T00:18:01;101523.75;;;0.71;100.00
76229;BME280;65021;53.174;18.160;2023-11-18T00:20:28;101526.89;;;0.71;100.00
76229;BME280;65021;53.174;18.160;2023-11-18T00:22:57;101529.01;;;0.72;100.00
76229;BME280;65021;53.174;18.160;2023-11-18T00:25:23;101535.04;;;0.74;100.00
76229;BME280;65021;53.174;18.160;2023-11-18T00:27:50;101538.06;;;0.75;100.00
76229;BME280;65021;53.174;18.160;2023-11-18T00:30:17;101544.09;;;0.79;100.00
76229;BME280;65021;53.174;18.160;2023-11-18T00:32:43;101545.73;;;0.80;100.00
76229;BME280;65021;53.174;18.160;2023-11-18T00:35:10;101547.11;;;0.81;100.00
76229;BME280;65021;53.174;18.160;2023-11-18T00:37:37;101548.68;;;0.82;100.00
76229;BME280;65021;53.174;18.160;2023-11-18T00:40:04;101558.30;;;0.82;100.00
76229;BME280;65021;53.174;18.160;2023-11-18T00:42:30;101559.30;;;0.83;100.00
76229;BME280;65021;53.174;18.160;2023-11-18T00:44:57;101567.98;;;0.84;100.00
76229;BME280;65021;53.174;18.160;2023-11-18T00:47:23;101569.20;;;0.86;100.00
76229;BME280;65021;53.174;18.160;2023-11-18T00:49:50;101572.25;;;0.86;100.00
76229;BME280;65021;53.174;18.160;2023-11-18T00:52:18;101577.69;;;0.88;100.00
76229;BME280;65021;53.174;18.160;2023-11-18T00:54:45;101578.31;;;0.89;100.00
76229;BME280;65021;53.174;18.160;2023-11-18T00:57:12;101581.73;;;0.88;100.00
76229;BME280;65021;53.174;18.160;2023-11-18T00:59:41;101588.71;;;0.88;100.00
76229;BME280;65021;53.174;18.160;2023-11-18T01:02:08;101587.23;;;0.88;100.00
76229;BME280;65021;53.174;18.160;2023-11-18T01:04:34;101588.74;;;0.89;100.00
76229;BME280;65021;53.174;18.160;2023-11-18T01:07:01;101593.91;;;0.88;100.00
76229;BME280;65021;53.174;18.160;2023-11-18T01:09:29;101597.27;;;0.88;100.00
76229;BME280;65021;53.174;18.160;2023-11-18T01:11:55;101600.03;;;0.88;100.00
76229;BME280;65021;53.174;18.160;2023-11-18T01:14:22;101599.21;;;0.88;100.00
76229;BME280;65021;53.174;18.160;2023-11-18T01:16:49;101602.76;;;0.88;100.00
76229;BME280;65021;53.174;18.160;2023-11-18T01:19:16;101599.20;;;0.87;100.00
76229;BME280;65021;53.174;18.160;2023-11-18T01:21:44;101602.17;;;0.86;100.00
76229;BME280;65021;53.174;18.160;2023-11-18T01:24:11;101601.65;;;0.84;100.00
76229;BME280;65021;53.174;18.160;2023-11-18T01:26:37;101597.75;;;0.83;100.00
76229;BME280;65021;53.174;18.160;2023-11-18T01:29:04;101597.33;;;0.82;100.00
76229;BME280;65021;53.174;18.160;2023-11-18T01:31:31;101601.73;;;0.82;100.00
76229;BME280;65021;53.174;18.160;2023-11-18T01:33:58;101601.39;;;0.82;100.00
76229;BME280;65021;53.174;18.160;2023-11-18T01:36:26;101596.45;;;0.80;100.00
76229;BME280;65021;53.174;18.160;2023-11-18T01:38:52;101601.56;;;0.82;100.00
76229;BME280;65021;53.174;18.160;2023-11-18T01:41:21;101596.70;;;0.81;100.00
76229;BME280;65021;53.174;18.160;2023-11-18T01:43:48;101599.83;;;0.79;100.00
76229;BME280;65021;53.174;18.160;2023-11-18T01:46:16;101596.65;;;0.77;100.00
76229;BME280;65021;53.174;18.160;2023-11-18T01:48:44;101596.89;;;0.76;100.00
76229;BME280;65021;53.174;18.160;2023-11-18T01:51:11;101596.48;;;0.75;100.00
76229;BME280;65021;53.174;18.160;2023-11-18T01:53:39;101603.47;;;0.73;100.00
76229;BME280;65021;53.174;18.160;2023-11-18T01:56:08;101609.45;;;0.71;100.00
76229;BME280;65021;53.174;18.160;2023-11-18T01:58:35;101611.90;;;0.71;100.00
76229;BME280;65021;53.174;18.160;2023-11-18T02:01:03;101610.78;;;0.71;100.00
76229;BME280;65021;53.174;18.160;2023-11-18T02:03:34;101614.06;;;0.71;100.00
76229;BME280;65021;53.174;18.160;2023-11-18T02:06:02;101617.89;;;0.71;100.00
76229;BME280;65021;53.174;18.160;2023-11-18T02:08:33;101620.97;;;0.71;100.00
76229;BME280;65021;53.174;18.160;2023-11-18T02:11:09;101624.93;;;0.70;100.00
76229;BME280;65021;53.174;18.160;2023-11-18T02:13:40;101622.71;;;0.70;100.00
76229;BME280;65021;53.174;18.160;2023-11-18T02:16:10;101623.11;;;0.70;100.00
76229;BME280;65021;53.174;18.160;2023-11-18T02:18:38;101624.69;;;0.69;100.00
76229;BME280;65021;53.174;18.160;2023-11-18T02:21:09;101623.23;;;0.67;100.00
76229;BME280;65021;53.174;18.160;2023-11-18T02:23:37;101625.98;;;0.65;100.00
76229;BME280;65021;53.174;18.160;2023-11-18T02:26:04;101633.70;;;0.64;100.00
76229;BME280;65021;53.174;18.160;2023-11-18T02:28:32;101643.05;;;0.64;100.00
76229;BME280;65021;53.174;18.160;2023-11-18T02:31:09;101639.05;;;0.63;100.00
76229;BME280;65021;53.174;18.160;2023-11-18T02:33:53;101629.27;;;0.63;100.00
76229;BME280;65021;53.174;18.160;2023-11-18T02:36:34;101635.01;;;0.64;100.00
76229;BME280;65021;53.174;18.160;2023-11-18T02:39:11;101636.15;;;0.65;100.00
76229;BME280;65021;53.174;18.160;2023-11-18T02:41:44;101630.15;;;0.66;100.00
76229;BME280;65021;53.174;18.160;2023-11-18T02:44:13;101630.94;;;0.68;100.00
76229;BME280;65021;53.174;18.160;2023-11-18T02:46:44;101628.51;;;0.69;100.00
76229;BME280;65021;53.174;18.160;2023-11-18T02:49:10;101630.36;;;0.69;100.00
76229;BME280;65021;53.174;18.160;2023-11-18T02:51:37;101637.16;;;0.68;100.00
76229;BME280;65021;53.174;18.160;2023-11-18T02:54:06;101632.94;;;0.69;100.00
76229;BME280;65021;53.174;18.160;2023-11-18T02:56:33;101641.89;;;0.68;100.00
76229;BME280;65021;53.174;18.160;2023-11-18T02:58:59;101637.91;;;0.68;100.00
76229;BME280;65021;53.174;18.160;2023-11-18T03:01:27;101648.16;;;0.67;100.00
76229;BME280;65021;53.174;18.160;2023-11-18T03:03:53;101646.83;;;0.68;100.00
76229;BME280;65021;53.174;18.160;2023-11-18T03:06:21;101654.05;;;0.69;100.00
76229;BME280;65021;53.174;18.160;2023-11-18T03:08:47;101654.41;;;0.70;100.00
76229;BME280;65021;53.174;18.160;2023-11-18T03:11:14;101659.07;;;0.71;100.00
76229;BME280;65021;53.174;18.160;2023-11-18T03:13:40;101661.84;;;0.73;100.00
76229;BME280;65021;53.174;18.160;2023-11-18T03:16:08;101662.71;;;0.75;100.00
76229;BME280;65021;53.174;18.160;2023-11-18T03:18:43;101674.52;;;0.77;100.00
76229;BME280;65021;53.174;18.160;2023-11-18T03:21:12;101673.34;;;0.78;100.00
76229;BME280;65021;53.174;18.160;2023-11-18T03:23:40;101683.45;;;0.82;100.00
76229;BME280;65021;53.174;18.160;2023-11-18T03:26:07;101684.29;;;0.84;100.00
76229;BME280;65021;53.174;18.160;2023-11-18T03:28:34;101692.68;;;0.86;100.00
76229;BME280;65021;53.174;18.160;2023-11-18T03:31:04;101686.19;;;0.87;100.00
76229;BME280;65021;53.174;18.160;2023-11-18T03:33:31;101692.33;;;0.88;100.00
76229;BME280;65021;53.174;18.160;2023-11-18T03:35:58;101697.55;;;0.88;100.00
76229;BME280;65021;53.174;18.160;2023-11-18T03:38:24;101704.39;;;0.89;100.00
76229;BME280;65021;53.174;18.160;2023-11-18T03:40:51;101705.43;;;0.90;100.00
76229;BME280;65021;53.174;18.160;2023-11-18T03:43:18;101711.95;;;0.90;100.00
76229;BME280;65021;53.174;18.160;2023-11-18T03:45:46;101711.42;;;0.90;100.00
76229;BME280;65021;53.174;18.160;2023-11-18T03:48:12;101717.48;;;0.91;100.00
76229;BME280;65021;53.174;18.160;2023-11-18T03:50:41;101724.30;;;0.92;100.00
76229;BME280;65021;53.174;18.160;2023-11-18T03:53:07;101723.45;;;0.95;100.00
76229;BME280;65021;53.174;18.160;2023-11-18T03:55:34;101720.83;;;0.98;100.00
76229;BME280;65021;53.174;18.160;2023-11-18T03:58:00;101721.72;;;1.00;100.00
76229;BME280;65021;53.174;18.160;2023-11-18T04:00:27;101724.90;;;1.00;100.00
76229;BME280;65021;53.174;18.160;2023-11-18T04:02:56;101724.73;;;0.99;100.00
76229;BME280;65021;53.174;18.160;2023-11-18T04:05:23;101731.98;;;0.99;100.00
76229;BME280;65021;53.174;18.160;2023-11-18T04:07:50;101736.50;;;0.99;100.00
76229;BME280;65021;53.174;18.160;2023-11-18T04:10:18;101739.45;;;1.01;100.00
76229;BME280;65021;53.174;18.160;2023-11-18T04:12:46;101736.41;;;1.02;100.00
76229;BME280;65021;53.174;18.160;2023-11-18T04:15:14;101737.11;;;1.02;100.00
76229;BME280;65021;53.174;18.160;2023-11-18T04:17:44;101737.67;;;1.02;100.00
76229;BME280;65021;53.174;18.160;2023-11-18T04:20:11;101736.04;;;1.02;100.00
76229;BME280;65021;53.174;18.160;2023-11-18T04:22:39;101743.88;;;1.02;100.00
76229;BME280;65021;53.174;18.160;2023-11-18T04:25:08;101747.52;;;1.04;100.00
76229;BME280;65021;53.174;18.160;2023-11-18T04:27:34;101748.38;;;1.04;100.00
76229;BME280;65021;53.174;18.160;2023-11-18T04:30:02;101752.04;;;1.06;100.00
76229;BME280;65021;53.174;18.160;2023-11-18T04:32:29;101753.92;;;1.05;100.00
76229;BME280;65021;53.174;18.160;2023-11-18T04:34:58;101758.60;;;1.04;100.00
76229;BME280;65021;53.174;18.160;2023-11-18T04:37:26;101765.77;;;1.04;100.00
76229;BME280;65021;53.174;18.160;2023-11-18T04:39:52;101774.64;;;1.03;100.00
76229;BME280;65021;53.174;18.160;2023-11-18T04:42:21;101773.73;;;1.03;100.00
76229;BME280;65021;53.174;18.160;2023-11-18T04:44:48;101775.05;;;1.02;100.00
76229;BME280;65021;53.174;18.160;2023-11-18T04:47:14;101773.10;;;1.04;100.00
76229;BME280;65021;53.174;18.160;2023-11-18T04:49:41;101776.41;;;1.05;100.00
76229;BME280;65021;53.174;18.160;2023-11-18T04:52:07;101779.01;;;1.05;100.00
76229;BME280;65021;53.174;18.160;2023-11-18T04:54:34;101781.13;;;1.05;100.00
76229;BME280;65021;53.174;18.160;2023-11-18T04:57:01;101779.45;;;1.06;100.00
76229;BME280;65021;53.174;18.160;2023-11-18T04:59:28;101786.70;;;1.06;100.00
76229;BME280;65021;53.174;18.160;2023-11-18T05:01:57;101790.16;;;1.06;100.00
76229;BME280;65021;53.174;18.160;2023-11-18T05:04:23;101796.21;;;1.06;100.00
76229;BME280;65021;53.174;18.160;2023-11-18T05:06:50;101799.91;;;1.05;100.00
76229;BME280;65021;53.174;18.160;2023-11-18T05:09:17;101799.77;;;1.05;100.00
76229;BME280;65021;53.174;18.160;2023-11-18T05:11:44;101802.03;;;1.06;100.00
76229;BME280;65021;53.174;18.160;2023-11-18T05:14:11;101800.70;;;1.07;100.00
76229;BME280;65021;53.174;18.160;2023-11-18T05:16:38;101805.44;;;1.08;100.00
76229;BME280;65021;53.174;18.160;2023-11-18T05:19:05;101806.31;;;1.11;100.00
76229;BME280;65021;53.174;18.160;2023-11-18T05:21:33;101806.52;;;1.12;100.00
76229;BME280;65021;53.174;18.160;2023-11-18T05:24:00;101803.08;;;1.13;100.00
76229;BME280;65021;53.174;18.160;2023-11-18T05:26:27;101802.94;;;1.15;100.00
76229;BME280;65021;53.174;18.160;2023-11-18T05:28:53;101806.08;;;1.16;100.00
76229;BME280;65021;53.174;18.160;2023-11-18T05:31:21;101812.25;;;1.16;100.00
76229;BME280;65021;53.174;18.160;2023-11-18T05:33:47;101814.73;;;1.17;100.00
76229;BME280;65021;53.174;18.160;2023-11-18T05:36:18;101819.94;;;1.18;100.00
76229;BME280;65021;53.174;18.160;2023-11-18T05:38:54;101821.33;;;1.19;100.00
76229;BME280;65021;53.174;18.160;2023-11-18T05:41:20;101825.35;;;1.20;100.00
76229;BME280;65021;53.174;18.160;2023-11-18T05:43:54;101821.63;;;1.21;100.00
76229;BME280;65021;53.174;18.160;2023-11-18T05:46:24;101823.96;;;1.23;100.00
76229;BME280;65021;53.174;18.160;2023-11-18T05:48:52;101825.33;;;1.24;100.00
76229;BME280;65021;53.174;18.160;2023-11-18T05:51:24;101826.56;;;1.22;100.00
76229;BME280;65021;53.174;18.160;2023-11-18T05:53:52;101823.85;;;1.22;100.00
76229;BME280;65021;53.174;18.160;2023-11-18T05:56:19;101819.33;;;1.20;100.00
76229;BME280;65021;53.174;18.160;2023-11-18T05:58:48;101820.13;;;1.16;100.00
76229;BME280;65021;53.174;18.160;2023-11-18T06:01:15;101832.13;;;1.12;100.00
76229;BME280;65021;53.174;18.160;2023-11-18T06:03:43;101832.64;;;1.07;100.00
76229;BME280;65021;53.174;18.160;2023-11-18T06:06:12;101832.67;;;1.01;100.00
76229;BME280;65021;53.174;18.160;2023-11-18T06:08:40;101839.63;;;0.96;100.00
76229;BME280;65021;53.174;18.160;2023-11-18T06:11:10;101837.05;;;0.87;100.00
76229;BME280;65021;53.174;18.160;2023-11-18T06:13:47;101842.08;;;0.76;100.00
76229;BME280;65021;53.174;18.160;2023-11-18T06:16:22;101843.94;;;0.67;100.00
76229;BME280;65021;53.174;18.160;2023-11-18T06:18:55;101849.79;;;0.59;100.00
76229;BME280;65021;53.174;18.160;2023-11-18T06:21:24;101854.66;;;0.52;100.00
76229;BME280;65021;53.174;18.160;2023-11-18T06:23:51;101860.45;;;0.49;100.00
76229;BME280;65021;53.174;18.160;2023-11-18T06:26:17;101866.06;;;0.44;100.00
76229;BME280;65021;53.174;18.160;2023-11-18T06:28:45;101873.04;;;0.40;100.00
76229;BME280;65021;53.174;18.160;2023-11-18T06:31:12;101871.73;;;0.37;100.00
76229;BME280;65021;53.174;18.160;2023-11-18T06:33:44;101874.34;;;0.33;100.00
76229;BME280;65021;53.174;18.160;2023-11-18T06:38:41;101875.77;;;0.35;100.00
76229;BME280;65021;53.174;18.160;2023-11-18T06:41:07;101876.85;;;0.37;100.00
76229;BME280;65021;53.174;18.160;2023-11-18T06:43:40;101879.23;;;0.39;100.00
76229;BME280;65021;53.174;18.160;2023-11-18T06:46:27;101885.56;;;0.39;100.00
76229;BME280;65021;53.174;18.160;2023-11-18T06:48:55;101883.98;;;0.39;100.00
76229;BME280;65021;53.174;18.160;2023-11-18T06:51:25;101889.54;;;0.41;100.00
76229;BME280;65021;53.174;18.160;2023-11-18T06:53:54;101894.88;;;0.46;100.00
76229;BME280;65021;53.174;18.160;2023-11-18T06:56:24;101896.54;;;0.52;100.00
76229;BME280;65021;53.174;18.160;2023-11-18T06:58:51;101897.98;;;0.57;100.00
76229;BME280;65021;53.174;18.160;2023-11-18T07:01:18;101902.48;;;0.63;100.00
76229;BME280;65021;53.174;18.160;2023-11-18T07:03:46;101903.30;;;0.69;100.00
76229;BME280;65021;53.174;18.160;2023-11-18T07:06:18;101908.87;;;0.76;100.00
76229;BME280;65021;53.174;18.160;2023-11-18T07:08:48;101906.99;;;0.83;100.00
76229;BME280;65021;53.174;18.160;2023-11-18T07:11:16;101903.34;;;0.90;100.00
76229;BME280;65021;53.174;18.160;2023-11-18T07:13:44;101910.52;;;0.97;100.00
76229;BME280;65021;53.174;18.160;2023-11-18T07:16:10;101909.72;;;1.03;100.00
76229;BME280;65021;53.174;18.160;2023-11-18T07:18:37;101907.77;;;1.07;100.00
76229;BME280;65021;53.174;18.160;2023-11-18T07:21:04;101907.70;;;1.13;100.00
76229;BME280;65021;53.174;18.160;2023-11-18T07:23:32;101902.59;;;1.18;100.00
76229;BME280;65021;53.174;18.160;2023-11-18T07:26:00;101904.04;;;1.24;100.00
76229;BME280;65021;53.174;18.160;2023-11-18T07:28:27;101899.64;;;1.29;100.00
76229;BME280;65021;53.174;18.160;2023-11-18T07:30:54;101907.79;;;1.35;100.00
76229;BME280;65021;53.174;18.160;2023-11-18T07:33:21;101906.15;;;1.40;100.00
76229;BME280;65021;53.174;18.160;2023-11-18T07:35:48;101911.11;;;1.44;100.00
76229;BME280;65021;53.174;18.160;2023-11-18T07:38:15;101908.48;;;1.49;100.00
76229;BME280;65021;53.174;18.160;2023-11-18T07:40:42;101909.03;;;1.53;100.00
76229;BME280;65021;53.174;18.160;2023-11-18T07:43:12;101908.02;;;1.54;100.00
76229;BME280;65021;53.174;18.160;2023-11-18T07:45:39;101917.41;;;1.53;100.00
76229;BME280;65021;53.174;18.160;2023-11-18T07:48:10;101916.48;;;1.53;100.00
76229;BME280;65021;53.174;18.160;2023-11-18T07:50:39;101922.69;;;1.53;100.00
76229;BME280;65021;53.174;18.160;2023-11-18T07:53:10;101927.01;;;1.56;100.00
76229;BME280;65021;53.174;18.160;2023-11-18T07:55:37;101929.80;;;1.62;100.00
76229;BME280;65021;53.174;18.160;2023-11-18T07:58:10;101925.92;;;1.78;100.00
76229;BME280;65021;53.174;18.160;2023-11-18T08:00:41;101926.27;;;1.96;100.00
76229;BME280;65021;53.174;18.160;2023-11-18T08:03:12;101926.04;;;2.14;100.00
76229;BME280;65021;53.174;18.160;2023-11-18T08:05:44;101923.17;;;2.37;100.00
76229;BME280;65021;53.174;18.160;2023-11-18T08:08:12;101926.38;;;2.50;100.00
76229;BME280;65021;53.174;18.160;2023-11-18T08:10:40;101924.23;;;2.60;100.00
76229;BME280;65021;53.174;18.160;2023-11-18T08:13:08;101927.65;;;2.71;100.00
76229;BME280;65021;53.174;18.160;2023-11-18T08:15:38;101929.88;;;2.74;100.00
76229;BME280;65021;53.174;18.160;2023-11-18T08:18:06;101928.52;;;2.73;100.00
76229;BME280;65021;53.174;18.160;2023-11-18T08:20:33;101929.61;;;2.72;100.00
76229;BME280;65021;53.174;18.160;2023-11-18T08:22:59;101932.17;;;2.73;100.00
76229;BME280;65021;53.174;18.160;2023-11-18T08:25:26;101935.11;;;2.78;100.00
76229;BME280;65021;53.174;18.160;2023-11-18T08:27:52;101935.14;;;2.75;100.00
76229;BME280;65021;53.174;18.160;2023-11-18T08:30:19;101938.08;;;2.68;100.00
76229;BME280;65021;53.174;18.160;2023-11-18T08:32:47;101937.27;;;2.67;100.00
76229;BME280;65021;53.174;18.160;2023-11-18T08:35:15;101934.34;;;2.71;100.00
76229;BME280;65021;53.174;18.160;2023-11-18T08:37:42;101934.86;;;2.72;100.00
76229;BME280;65021;53.174;18.160;2023-11-18T08:40:10;101934.98;;;2.70;100.00
76229;BME280;65021;53.174;18.160;2023-11-18T08:42:45;101930.21;;;2.63;100.00
76229;BME280;65021;53.174;18.160;2023-11-18T08:45:23;101934.79;;;2.63;100.00
76229;BME280;65021;53.174;18.160;2023-11-18T08:47:56;101934.39;;;2.53;100.00
76229;BME280;65021;53.174;18.160;2023-11-18T08:50:24;101938.67;;;2.44;100.00
76229;BME280;65021;53.174;18.160;2023-11-18T08:52:54;101947.17;;;2.38;100.00
76229;BME280;65021;53.174;18.160;2023-11-18T08:55:26;101956.31;;;2.34;100.00
76229;BME280;65021;53.174;18.160;2023-11-18T08:58:06;101956.04;;;2.33;100.00
76229;BME280;65021;53.174;18.160;2023-11-18T09:00:49;101957.14;;;2.34;100.00
76229;BME280;65021;53.174;18.160;2023-11-18T09:03:21;101951.09;;;2.40;100.00
76229;BME280;65021;53.174;18.160;2023-11-18T09:05:52;101952.83;;;2.38;100.00
76229;BME280;65021;53.174;18.160;2023-11-18T09:10:54;101959.72;;;2.44;100.00
76229;BME280;65021;53.174;18.160;2023-11-18T09:13:24;101964.56;;;2.40;100.00
76229;BME280;65021;53.174;18.160;2023-11-18T09:15:59;101964.70;;;2.39;100.00
76229;BME280;65021;53.174;18.160;2023-11-18T09:18:30;101971.03;;;2.34;100.00
76229;BME280;65021;53.174;18.160;2023-11-18T09:20:59;101972.41;;;2.37;100.00
76229;BME280;65021;53.174;18.160;2023-11-18T09:23:29;101974.27;;;2.47;100.00
76229;BME280;65021;53.174;18.160;2023-11-18T09:25:56;101976.80;;;2.52;100.00
76229;BME280;65021;53.174;18.160;2023-11-18T09:28:26;101978.85;;;2.56;100.00
76229;BME280;65021;53.174;18.160;2023-11-18T09:30:56;101979.08;;;2.63;100.00
76229;BME280;65021;53.174;18.160;2023-11-18T09:33:30;101981.35;;;2.71;100.00
76229;BME280;65021;53.174;18.160;2023-11-18T09:38:32;101993.02;;;2.91;100.00
76229;BME280;65021;53.174;18.160;2023-11-18T09:41:03;101999.52;;;3.03;100.00
76229;BME280;65021;53.174;18.160;2023-11-18T09:43:30;102006.07;;;3.15;100.00
76229;BME280;65021;53.174;18.160;2023-11-18T09:46:04;102005.34;;;3.25;100.00
76229;BME280;65021;53.174;18.160;2023-11-18T09:48:48;102009.84;;;3.44;100.00
76229;BME280;65021;53.174;18.160;2023-11-18T09:51:28;102017.63;;;3.61;100.00
76229;BME280;65021;53.174;18.160;2023-11-18T09:54:00;102018.90;;;3.71;100.00
76229;BME280;65021;53.174;18.160;2023-11-18T09:56:35;102024.98;;;3.77;100.00
76229;BME280;65021;53.174;18.160;2023-11-18T09:59:12;102023.95;;;3.83;100.00
76229;BME280;65021;53.174;18.160;2023-11-18T10:01:42;102017.02;;;3.89;100.00
76229;BME280;65021;53.174;18.160;2023-11-18T10:04:14;102011.50;;;3.92;100.00
76229;BME280;65021;53.174;18.160;2023-11-18T10:06:46;102014.42;;;3.96;100.00
76229;BME280;65021;53.174;18.160;2023-11-18T10:09:13;102017.02;;;4.08;100.00
76229;BME280;65021;53.174;18.160;2023-11-18T10:11:47;102015.05;;;4.21;100.00
76229;BME280;65021;53.174;18.160;2023-11-18T10:14:14;102024.27;;;4.17;100.00
76229;BME280;65021;53.174;18.160;2023-11-18T10:16:44;102024.63;;;4.09;100.00
76229;BME280;65021;53.174;18.160;2023-11-18T10:19:14;102027.86;;;4.08;100.00
76229;BME280;65021;53.174;18.160;2023-11-18T10:21:43;102024.93;;;4.11;100.00
76229;BME280;65021;53.174;18.160;2023-11-18T10:24:15;102031.13;;;4.15;100.00
76229;BME280;65021;53.174;18.160;2023-11-18T10:26:56;102037.79;;;4.18;100.00
76229;BME280;65021;53.174;18.160;2023-11-18T10:29:24;102036.48;;;4.11;100.00
76229;BME280;65021;53.174;18.160;2023-11-18T10:32:06;102036.60;;;3.94;100.00
76229;BME280;65021;53.174;18.160;2023-11-18T10:34:42;102042.23;;;3.80;100.00
76229;BME280;65021;53.174;18.160;2023-11-18T10:37:09;102044.69;;;3.76;100.00
76229;BME280;65021;53.174;18.160;2023-11-18T10:39:37;102044.19;;;3.76;100.00
76229;BME280;65021;53.174;18.160;2023-11-18T10:42:04;102037.90;;;3.86;100.00
76229;BME280;65021;53.174;18.160;2023-11-18T10:44:30;102035.85;;;3.89;100.00
76229;BME280;65021;53.174;18.160;2023-11-18T10:46:58;102035.98;;;3.94;100.00
76229;BME280;65021;53.174;18.160;2023-11-18T10:49:28;102041.80;;;3.92;100.00
76229;BME280;65021;53.174;18.160;2023-11-18T10:51:56;102042.35;;;3.87;100.00
76229;BME280;65021;53.174;18.160;2023-11-18T10:54:25;102044.68;;;3.89;100.00
76229;BME280;65021;53.174;18.160;2023-11-18T10:56:53;102049.36;;;3.96;100.00
76229;BME280;65021;53.174;18.160;2023-11-18T10:59:22;102044.12;;;4.04;100.00
76229;BME280;65021;53.174;18.160;2023-11-18T11:01:49;102044.36;;;4.15;100.00
76229;BME280;65021;53.174;18.160;2023-11-18T11:04:16;102045.50;;;4.16;100.00
76229;BME280;65021;53.174;18.160;2023-11-18T11:06:49;102046.48;;;4.17;100.00
76229;BME280;65021;53.174;18.160;2023-11-18T11:09:24;102052.16;;;4.18;100.00
76229;BME280;65021;53.174;18.160;2023-11-18T11:11:55;102052.23;;;4.20;100.00
76229;BME280;65021;53.174;18.160;2023-11-18T11:14:26;102061.82;;;4.27;100.00
76229;BME280;65021;53.174;18.160;2023-11-18T11:17:16;102067.33;;;4.32;100.00
76229;BME280;65021;53.174;18.160;2023-11-18T11:19:59;102067.80;;;4.32;100.00
76229;BME280;65021;53.174;18.160;2023-11-18T11:25:47;102066.88;;;4.17;100.00
76229;BME280;65021;53.174;18.160;2023-11-18T11:28:23;102068.64;;;4.12;100.00
76229;BME280;65021;53.174;18.160;2023-11-18T11:31:03;102065.58;;;4.07;100.00
76229;BME280;65021;53.174;18.160;2023-11-18T11:33:39;102066.34;;;4.09;100.00
76229;BME280;65021;53.174;18.160;2023-11-18T11:36:17;102061.73;;;4.12;100.00
76229;BME280;65021;53.174;18.160;2023-11-18T11:38:52;102057.75;;;4.15;100.00
76229;BME280;65021;53.174;18.160;2023-11-18T11:41:19;102059.63;;;4.17;100.00
76229;BME280;65021;53.174;18.160;2023-11-18T11:43:52;102062.46;;;4.18;100.00
76229;BME280;65021;53.174;18.160;2023-11-18T11:46:25;102065.48;;;4.19;100.00
76229;BME280;65021;53.174;18.160;2023-11-18T11:49:01;102073.21;;;4.22;100.00
76229;BME280;65021;53.174;18.160;2023-11-18T11:51:44;102083.26;;;4.21;100.00
76229;BME280;65021;53.174;18.160;2023-11-18T11:54:21;102096.27;;;4.16;100.00
76229;BME280;65021;53.174;18.160;2023-11-18T11:56:50;102093.55;;;4.08;100.00
76229;BME280;65021;53.174;18.160;2023-11-18T12:02:11;102086.63;;;4.04;100.00
76229;BME280;65021;53.174;18.160;2023-11-18T12:04:46;102088.38;;;4.00;100.00
76229;BME280;65021;53.174;18.160;2023-11-18T12:07:14;102093.81;;;3.91;100.00
76229;BME280;65021;53.174;18.160;2023-11-18T12:09:42;102081.64;;;3.88;100.00
76229;BME280;65021;53.174;18.160;2023-11-18T12:12:23;102070.46;;;3.90;100.00
76229;BME280;65021;53.174;18.160;2023-11-18T12:14:55;102068.27;;;3.88;100.00
76229;BME280;65021;53.174;18.160;2023-11-18T12:20:40;102079.65;;;3.90;100.00
76229;BME280;65021;53.174;18.160;2023-11-18T12:23:08;102087.59;;;3.91;100.00
76229;BME280;65021;53.174;18.160;2023-11-18T12:25:44;102084.90;;;3.90;100.00
76229;BME280;65021;53.174;18.160;2023-11-18T12:28:28;102080.20;;;3.89;100.00
76229;BME280;65021;53.174;18.160;2023-11-18T12:30:57;102083.19;;;3.91;100.00
76229;BME280;65021;53.174;18.160;2023-11-18T12:33:24;102085.25;;;3.89;100.00
76229;BME280;65021;53.174;18.160;2023-11-18T12:42:07;102080.87;;;3.82;100.00
76229;BME280;65021;53.174;18.160;2023-11-18T12:47:20;102081.77;;;3.81;100.00
76229;BME280;65021;53.174;18.160;2023-11-18T12:49:48;102079.70;;;3.78;100.00
76229;BME280;65021;53.174;18.160;2023-11-18T12:52:21;102083.14;;;3.80;100.00
76229;BME280;65021;53.174;18.160;2023-11-18T12:54:49;102085.92;;;3.83;100.00
76229;BME280;65021;53.174;18.160;2023-11-18T12:57:21;102086.08;;;3.85;100.00
76229;BME280;65021;53.174;18.160;2023-11-18T12:59:49;102089.58;;;3.83;100.00
76229;BME280;65021;53.174;18.160;2023-11-18T13:02:16;102089.05;;;3.79;100.00
76229;BME280;65021;53.174;18.160;2023-11-18T13:04:46;102090.64;;;3.75;100.00
76229;BME280;65021;53.174;18.160;2023-11-18T13:07:16;102090.31;;;3.72;100.00
76229;BME280;65021;53.174;18.160;2023-11-18T13:09:51;102097.90;;;3.69;100.00
76229;BME280;65021;53.174;18.160;2023-11-18T13:12:20;102102.13;;;3.69;100.00
76229;BME280;65021;53.174;18.160;2023-11-18T13:14:50;102101.81;;;3.65;100.00
76229;BME280;65021;53.174;18.160;2023-11-18T13:17:17;102100.98;;;3.60;100.00